sensor_id;sensor_type;location;lat;lon;timestamp;pressure;altitude;pressure_sealevel;temperature;humidity
57050;BME280;42935;50.966;16.992;2022-09-16T00:02:42;100445.37;;;11.93;100.00
57050;BME280;42935;50.966;16.992;2022-09-16T00:05:55;100439.42;;;11.83;100.00
57050;BME280;42935;50.966;16.992;2022-09-16T00:09:09;100441.23;;;11.70;100.00
57050;BME280;42935;50.966;16.992;2022-09-16T00:12:22;100447.02;;;11.76;100.00
57050;BME280;42935;50.966;16.992;2022-09-16T00:15:35;100459.21;;;11.87;100.00
57050;BME280;42935;50.966;16.992;2022-09-16T00:18:51;100457.28;;;11.85;100.00
57050;BME280;42935;50.966;16.992;2022-09-16T00:22:05;100461.77;;;11.88;100.00
57050;BME280;42935;50.966;16.992;2022-09-16T00:25:18;100465.23;;;11.82;100.00
57050;BME280;42935;50.966;16.992;2022-09-16T00:28:31;100461.89;;;11.72;100.00
57050;BME280;42935;50.966;16.992;2022-09-16T00:31:44;100461.48;;;11.56;100.00
57050;BME280;42935;50.966;16.992;2022-09-16T00:34:57;100456.82;;;11.48;100.00
57050;BME280;42935;50.966;16.992;2022-09-16T00:38:10;100456.85;;;11.38;100.00
57050;BME280;42935;50.966;16.992;2022-09-16T00:41:28;100456.90;;;11.21;100.00
57050;BME280;42935;50.966;16.992;2022-09-16T00:48:13;100465.19;;;11.25;100.00
57050;BME280;42935;50.966;16.992;2022-09-16T00:51:25;100467.10;;;11.30;100.00
57050;BME280;42935;50.966;16.992;2022-09-16T00:54:41;100467.16;;;11.30;100.00
57050;BME280;42935;50.966;16.992;2022-09-16T00:57:59;100462.80;;;11.36;100.00
57050;BME280;42935;50.966;16.992;2022-09-16T01:01:24;100461.10;;;11.34;100.00
57050;BME280;42935;50.966;16.992;2022-09-16T01:04:47;100457.66;;;11.30;100.00
57050;BME280;42935;50.966;16.992;2022-09-16T01:08:02;100457.93;;;11.33;100.00
57050;BME280;42935;50.966;16.992;2022-09-16T01:11:16;100463.80;;;11.36;100.00
57050;BME280;42935;50.966;16.992;2022-09-16T01:14:29;100461.06;;;11.38;100.00
57050;BME280;42935;50.966;16.992;2022-09-16T01:25:06;100467.57;;;11.42;100.00
57050;BME280;42935;50.966;16.992;2022-09-16T01:45:28;100466.01;;;11.51;100.00
57050;BME280;42935;50.966;16.992;2022-09-16T01:55:40;100476.77;;;11.46;100.00
57050;BME280;42935;50.966;16.992;2022-09-16T01:59:01;100476.52;;;11.45;100.00
57050;BME280;42935;50.966;16.992;2022-09-16T02:09:11;100467.67;;;11.39;100.00
57050;BME280;42935;50.966;16.992;2022-09-16T02:12:28;100465.91;;;11.47;100.00
57050;BME280;42935;50.966;16.992;2022-09-16T02:15:48;100458.18;;;11.47;100.00
57050;BME280;42935;50.966;16.992;2022-09-16T02:19:07;100469.02;;;11.73;100.00
57050;BME280;42935;50.966;16.992;2022-09-16T02:22:32;100462.81;;;11.78;100.00
57050;BME280;42935;50.966;16.992;2022-09-16T02:25:46;100472.07;;;11.97;100.00
57050;BME280;42935;50.966;16.992;2022-09-16T02:29:00;100476.91;;;12.03;100.00
57050;BME280;42935;50.966;16.992;2022-09-16T02:32:14;100470.62;;;12.13;100.00
57050;BME280;42935;50.966;16.992;2022-09-16T02:35:33;100473.70;;;12.14;100.00
57050;BME280;42935;50.966;16.992;2022-09-16T02:38:51;100476.12;;;12.16;100.00
57050;BME280;42935;50.966;16.992;2022-09-16T02:42:04;100478.15;;;12.14;100.00
57050;BME280;42935;50.966;16.992;2022-09-16T02:45:22;100476.88;;;12.11;100.00
57050;BME280;42935;50.966;16.992;2022-09-16T02:58:49;100470.15;;;12.05;100.00
57050;BME280;42935;50.966;16.992;2022-09-16T03:02:03;100475.94;;;12.00;100.00
57050;BME280;42935;50.966;16.992;2022-09-16T03:05:25;100478.90;;;11.93;100.00
57050;BME280;42935;50.966;16.992;2022-09-16T03:08:37;100482.41;;;11.92;100.00
57050;BME280;42935;50.966;16.992;2022-09-16T03:12:04;100474.44;;;11.85;100.00
57050;BME280;42935;50.966;16.992;2022-09-16T03:18:55;100493.45;;;11.96;100.00
57050;BME280;42935;50.966;16.992;2022-09-16T03:32:42;100479.90;;;11.76;100.00
57050;BME280;42935;50.966;16.992;2022-09-16T03:35:46;100489.59;;;11.85;100.00
57050;BME280;42935;50.966;16.992;2022-09-16T03:39:03;100487.37;;;11.73;100.00
57050;BME280;42935;50.966;16.992;2022-09-16T03:42:16;100496.43;;;11.75;100.00
57050;BME280;42935;50.966;16.992;2022-09-16T03:45:33;100483.33;;;11.63;100.00
57050;BME280;42935;50.966;16.992;2022-09-16T03:48:46;100488.80;;;11.73;100.00
57050;BME280;42935;50.966;16.992;2022-09-16T03:51:58;100490.10;;;11.71;100.00
57050;BME280;42935;50.966;16.992;2022-09-16T03:55:11;100486.91;;;11.73;100.00
57050;BME280;42935;50.966;16.992;2022-09-16T03:58:28;100486.45;;;11.75;100.00
57050;BME280;42935;50.966;16.992;2022-09-16T04:01:41;100490.47;;;11.77;100.00
57050;BME280;42935;50.966;16.992;2022-09-16T04:04:59;100487.29;;;11.78;100.00
57050;BME280;42935;50.966;16.992;2022-09-16T04:08:12;100477.11;;;11.69;100.00
57050;BME280;42935;50.966;16.992;2022-09-16T04:11:26;100478.49;;;11.78;100.00
57050;BME280;42935;50.966;16.992;2022-09-16T04:14:38;100469.55;;;11.59;100.00
57050;BME280;42935;50.966;16.992;2022-09-16T04:17:51;100474.72;;;11.65;100.00
57050;BME280;42935;50.966;16.992;2022-09-16T04:21:07;100457.59;;;11.53;100.00
57050;BME280;42935;50.966;16.992;2022-09-16T04:24:21;100468.84;;;11.65;100.00
57050;BME280;42935;50.966;16.992;2022-09-16T04:27:36;100464.98;;;11.61;100.00
57050;BME280;42935;50.966;16.992;2022-09-16T04:31:00;100462.19;;;11.63;100.00
57050;BME280;42935;50.966;16.992;2022-09-16T04:34:17;100463.23;;;11.63;100.00
57050;BME280;42935;50.966;16.992;2022-09-16T04:37:25;100466.62;;;11.58;100.00
57050;BME280;42935;50.966;16.992;2022-09-16T04:40:37;100471.05;;;11.55;100.00
57050;BME280;42935;50.966;16.992;2022-09-16T04:43:53;100473.04;;;11.47;100.00
57050;BME280;42935;50.966;16.992;2022-09-16T04:47:09;100465.15;;;11.32;100.00
57050;BME280;42935;50.966;16.992;2022-09-16T04:50:22;100486.19;;;11.33;100.00
57050;BME280;42935;50.966;16.992;2022-09-16T04:53:35;100490.62;;;11.25;100.00
57050;BME280;42935;50.966;16.992;2022-09-16T04:56:48;100492.84;;;11.23;100.00
57050;BME280;42935;50.966;16.992;2022-09-16T05:00:03;100478.63;;;11.26;100.00
57050;BME280;42935;50.966;16.992;2022-09-16T05:03:13;100488.24;;;11.32;100.00
57050;BME280;42935;50.966;16.992;2022-09-16T05:06:31;100493.45;;;11.34;100.00
57050;BME280;42935;50.966;16.992;2022-09-16T05:09:44;100496.01;;;11.41;100.00
57050;BME280;42935;50.966;16.992;2022-09-16T05:12:56;100487.89;;;11.47;100.00
57050;BME280;42935;50.966;16.992;2022-09-16T05:19:56;100489.27;;;11.54;100.00
57050;BME280;42935;50.966;16.992;2022-09-16T05:23:10;100492.31;;;11.54;100.00
57050;BME280;42935;50.966;16.992;2022-09-16T05:26:25;100493.09;;;11.51;100.00
57050;BME280;42935;50.966;16.992;2022-09-16T05:29:36;100486.01;;;11.54;100.00
57050;BME280;42935;50.966;16.992;2022-09-16T05:32:52;100495.85;;;11.57;100.00
57050;BME280;42935;50.966;16.992;2022-09-16T05:36:11;100494.88;;;11.57;100.00
57050;BME280;42935;50.966;16.992;2022-09-16T05:39:23;100495.81;;;11.62;100.00
57050;BME280;42935;50.966;16.992;2022-09-16T05:42:31;100503.16;;;11.64;100.00
57050;BME280;42935;50.966;16.992;2022-09-16T05:45:50;100502.41;;;11.69;100.00
57050;BME280;42935;50.966;16.992;2022-09-16T05:49:01;100489.35;;;11.68;100.00
57050;BME280;42935;50.966;16.992;2022-09-16T05:52:15;100492.76;;;11.72;100.00
57050;BME280;42935;50.966;16.992;2022-09-16T05:55:26;100496.41;;;11.82;100.00
57050;BME280;42935;50.966;16.992;2022-09-16T05:58:36;100500.47;;;11.88;100.00
57050;BME280;42935;50.966;16.992;2022-09-16T06:01:52;100496.95;;;11.94;100.00
57050;BME280;42935;50.966;16.992;2022-09-16T06:05:01;100489.64;;;12.14;100.00
57050;BME280;42935;50.966;16.992;2022-09-16T06:08:12;100481.84;;;12.30;100.00
57050;BME280;42935;50.966;16.992;2022-09-16T06:11:22;100482.05;;;12.42;100.00
57050;BME280;42935;50.966;16.992;2022-09-16T06:14:44;100480.42;;;12.39;100.00
57050;BME280;42935;50.966;16.992;2022-09-16T06:18:07;100478.57;;;12.29;100.00
57050;BME280;42935;50.966;16.992;2022-09-16T06:21:21;100494.64;;;12.25;100.00
57050;BME280;42935;50.966;16.992;2022-09-16T06:24:32;100499.28;;;12.16;100.00
57050;BME280;42935;50.966;16.992;2022-09-16T06:27:49;100494.27;;;12.00;100.00
57050;BME280;42935;50.966;16.992;2022-09-16T06:31:08;100500.62;;;11.95;100.00
57050;BME280;42935;50.966;16.992;2022-09-16T06:34:21;100494.55;;;11.96;100.00
57050;BME280;42935;50.966;16.992;2022-09-16T06:37:33;100487.90;;;12.06;100.00
57050;BME280;42935;50.966;16.992;2022-09-16T06:41:17;100488.06;;;12.24;100.00
57050;BME280;42935;50.966;16.992;2022-09-16T06:44:28;100492.30;;;12.24;100.00
57050;BME280;42935;50.966;16.992;2022-09-16T06:47:41;100492.68;;;12.44;100.00
57050;BME280;42935;50.966;16.992;2022-09-16T06:51:15;100502.94;;;12.56;100.00
57050;BME280;42935;50.966;16.992;2022-09-16T06:54:23;100503.39;;;12.64;100.00
57050;BME280;42935;50.966;16.992;2022-09-16T06:57:36;100504.66;;;12.69;100.00
57050;BME280;42935;50.966;16.992;2022-09-16T07:00:49;100500.20;;;12.67;100.00
57050;BME280;42935;50.966;16.992;2022-09-16T07:04:06;100505.33;;;12.72;100.00
57050;BME280;42935;50.966;16.992;2022-09-16T07:07:23;100510.20;;;12.79;100.00
57050;BME280;42935;50.966;16.992;2022-09-16T07:11:12;100501.23;;;12.96;100.00
57050;BME280;42935;50.966;16.992;2022-09-16T07:14:26;100508.77;;;12.83;100.00
57050;BME280;42935;50.966;16.992;2022-09-16T07:17:39;100506.95;;;13.05;100.00
57050;BME280;42935;50.966;16.992;2022-09-16T07:21:20;100507.88;;;13.31;100.00
57050;BME280;42935;50.966;16.992;2022-09-16T07:24:36;100508.85;;;13.11;100.00
57050;BME280;42935;50.966;16.992;2022-09-16T07:27:50;100500.46;;;13.23;100.00
57050;BME280;42935;50.966;16.992;2022-09-16T07:31:10;100508.78;;;13.22;100.00
57050;BME280;42935;50.966;16.992;2022-09-16T07:34:22;100492.54;;;13.21;100.00
57050;BME280;42935;50.966;16.992;2022-09-16T07:37:35;100489.07;;;13.39;100.00
57050;BME280;42935;50.966;16.992;2022-09-16T07:40:47;100496.16;;;13.52;100.00
57050;BME280;42935;50.966;16.992;2022-09-16T07:43:56;100500.30;;;13.56;100.00
57050;BME280;42935;50.966;16.992;2022-09-16T07:47:13;100505.86;;;13.19;100.00
57050;BME280;42935;50.966;16.992;2022-09-16T07:51:04;100512.34;;;13.25;100.00
57050;BME280;42935;50.966;16.992;2022-09-16T07:54:15;100513.81;;;13.39;100.00
57050;BME280;42935;50.966;16.992;2022-09-16T07:57:31;100522.88;;;13.38;100.00
57050;BME280;42935;50.966;16.992;2022-09-16T08:00:48;100515.41;;;13.46;100.00
57050;BME280;42935;50.966;16.992;2022-09-16T08:04:01;100515.34;;;13.50;100.00
57050;BME280;42935;50.966;16.992;2022-09-16T08:07:16;100518.20;;;13.58;100.00
57050;BME280;42935;50.966;16.992;2022-09-16T08:10:29;100518.81;;;13.51;99.73
57050;BME280;42935;50.966;16.992;2022-09-16T08:13:45;100518.13;;;13.54;99.12
57050;BME280;42935;50.966;16.992;2022-09-16T08:16:59;100526.32;;;13.56;99.61
57050;BME280;42935;50.966;16.992;2022-09-16T08:20:16;100507.97;;;13.66;98.35
57050;BME280;42935;50.966;16.992;2022-09-16T08:23:27;100517.06;;;13.39;99.36
57050;BME280;42935;50.966;16.992;2022-09-16T08:26:38;100527.41;;;13.48;100.00
57050;BME280;42935;50.966;16.992;2022-09-16T08:29:46;100509.55;;;13.75;100.00
57050;BME280;42935;50.966;16.992;2022-09-16T08:32:59;100512.96;;;13.95;100.00
57050;BME280;42935;50.966;16.992;2022-09-16T08:36:18;100521.30;;;13.84;96.06
57050;BME280;42935;50.966;16.992;2022-09-16T08:39:29;100522.69;;;14.09;95.89
57050;BME280;42935;50.966;16.992;2022-09-16T08:46:15;100527.71;;;13.57;100.00
57050;BME280;42935;50.966;16.992;2022-09-16T08:52:45;100524.98;;;14.02;95.67
57050;BME280;42935;50.966;16.992;2022-09-16T08:55:57;100516.99;;;14.68;97.42
57050;BME280;42935;50.966;16.992;2022-09-16T08:59:20;100518.04;;;14.95;89.11
57050;BME280;42935;50.966;16.992;2022-09-16T09:05:50;100510.92;;;14.77;87.05
57050;BME280;42935;50.966;16.992;2022-09-16T09:15:56;100511.55;;;14.87;89.26
57050;BME280;42935;50.966;16.992;2022-09-16T09:33:42;100525.91;;;13.15;100.00
57050;BME280;42935;50.966;16.992;2022-09-16T09:44:51;100506.39;;;13.43;100.00
57050;BME280;42935;50.966;16.992;2022-09-16T09:48:18;100500.88;;;13.40;100.00
57050;BME280;42935;50.966;16.992;2022-09-16T09:51:40;100496.59;;;13.77;100.00
57050;BME280;42935;50.966;16.992;2022-09-16T09:54:50;100493.47;;;13.92;100.00
57050;BME280;42935;50.966;16.992;2022-09-16T10:01:20;100498.25;;;14.21;91.28
57050;BME280;42935;50.966;16.992;2022-09-16T10:05:00;100487.71;;;14.41;95.89
57050;BME280;42935;50.966;16.992;2022-09-16T10:08:44;100486.12;;;14.84;88.76
57050;BME280;42935;50.966;16.992;2022-09-16T10:12:32;100483.41;;;15.23;91.55
57050;BME280;42935;50.966;16.992;2022-09-16T10:16:16;100480.44;;;15.44;80.62
57050;BME280;42935;50.966;16.992;2022-09-16T10:19:31;100477.25;;;15.80;80.65
57050;BME280;42935;50.966;16.992;2022-09-16T10:23:21;100485.38;;;15.21;79.67
57050;BME280;42935;50.966;16.992;2022-09-16T10:26:38;100483.17;;;15.61;80.94
57050;BME280;42935;50.966;16.992;2022-09-16T10:33:16;100492.59;;;15.19;81.47
57050;BME280;42935;50.966;16.992;2022-09-16T10:36:32;100479.16;;;15.46;78.93
57050;BME280;42935;50.966;16.992;2022-09-16T10:43:03;100477.72;;;15.35;80.04
57050;BME280;42935;50.966;16.992;2022-09-16T10:46:15;100474.46;;;14.79;78.16
57050;BME280;42935;50.966;16.992;2022-09-16T10:49:36;100474.36;;;14.97;77.13
57050;BME280;42935;50.966;16.992;2022-09-16T10:52:49;100465.39;;;15.10;79.65
57050;BME280;42935;50.966;16.992;2022-09-16T11:06:54;100470.57;;;15.90;68.47
57050;BME280;42935;50.966;16.992;2022-09-16T11:13:31;100471.48;;;16.27;68.89
57050;BME280;42935;50.966;16.992;2022-09-16T11:16:58;100458.25;;;16.30;69.53
57050;BME280;42935;50.966;16.992;2022-09-16T11:23:35;100451.48;;;16.47;65.47
57050;BME280;42935;50.966;16.992;2022-09-16T11:27:23;100445.56;;;16.79;64.83
57050;BME280;42935;50.966;16.992;2022-09-16T11:30:47;100436.48;;;17.19;64.88
57050;BME280;42935;50.966;16.992;2022-09-16T11:34:04;100440.05;;;16.83;64.89
57050;BME280;42935;50.966;16.992;2022-09-16T11:44:38;100434.02;;;17.33;68.92
57050;BME280;42935;50.966;16.992;2022-09-16T11:48:00;100443.07;;;16.71;66.68
57050;BME280;42935;50.966;16.992;2022-09-16T12:05:21;100440.49;;;15.50;65.68
57050;BME280;42935;50.966;16.992;2022-09-16T12:12:07;100441.85;;;15.22;67.43
57050;BME280;42935;50.966;16.992;2022-09-16T12:15:23;100433.01;;;15.83;67.84
57050;BME280;42935;50.966;16.992;2022-09-16T12:18:43;100430.63;;;16.32;64.90
57050;BME280;42935;50.966;16.992;2022-09-16T12:25:28;100432.04;;;15.92;62.88
57050;BME280;42935;50.966;16.992;2022-09-16T12:28:50;100425.94;;;16.10;63.17
57050;BME280;42935;50.966;16.992;2022-09-16T12:32:10;100422.24;;;16.47;63.24
57050;BME280;42935;50.966;16.992;2022-09-16T12:35:35;100420.50;;;16.67;64.33
57050;BME280;42935;50.966;16.992;2022-09-16T12:38:43;100421.47;;;16.25;64.15
57050;BME280;42935;50.966;16.992;2022-09-16T13:02:14;100384.20;;;17.38;62.60
57050;BME280;42935;50.966;16.992;2022-09-16T13:05:34;100376.30;;;17.90;62.80
57050;BME280;42935;50.966;16.992;2022-09-16T13:08:43;100381.20;;;17.91;63.10
57050;BME280;42935;50.966;16.992;2022-09-16T13:12:00;100384.05;;;17.04;62.30
57050;BME280;42935;50.966;16.992;2022-09-16T13:18:43;100370.39;;;17.39;63.31
57050;BME280;42935;50.966;16.992;2022-09-16T13:22:31;100374.59;;;16.76;64.96
57050;BME280;42935;50.966;16.992;2022-09-16T13:25:58;100374.41;;;17.56;64.24
57050;BME280;42935;50.966;16.992;2022-09-16T13:32:42;100367.81;;;18.04;60.23
57050;BME280;42935;50.966;16.992;2022-09-16T13:36:02;100359.56;;;17.87;58.85
57050;BME280;42935;50.966;16.992;2022-09-16T13:39:26;100376.80;;;18.34;56.60
57050;BME280;42935;50.966;16.992;2022-09-16T13:42:28;100381.08;;;17.11;54.39
57050;BME280;42935;50.966;16.992;2022-09-16T13:45:44;100371.53;;;16.37;56.28
57050;BME280;42935;50.966;16.992;2022-09-16T13:52:26;100377.12;;;16.19;62.84
57050;BME280;42935;50.966;16.992;2022-09-16T13:55:35;100379.17;;;17.18;66.62
57050;BME280;42935;50.966;16.992;2022-09-16T14:05:50;100364.30;;;18.30;64.17
57050;BME280;42935;50.966;16.992;2022-09-16T14:15:55;100357.96;;;19.01;61.26
57050;BME280;42935;50.966;16.992;2022-09-16T14:19:22;100363.39;;;18.35;59.99
57050;BME280;42935;50.966;16.992;2022-09-16T14:22:32;100354.45;;;18.25;61.35
57050;BME280;42935;50.966;16.992;2022-09-16T14:25:40;100356.07;;;18.69;60.58
57050;BME280;42935;50.966;16.992;2022-09-16T14:32:11;100342.61;;;19.35;59.41
57050;BME280;42935;50.966;16.992;2022-09-16T14:35:32;100342.98;;;19.77;60.50
57050;BME280;42935;50.966;16.992;2022-09-16T14:42:33;100346.37;;;18.57;58.57
57050;BME280;42935;50.966;16.992;2022-09-16T14:45:45;100345.00;;;18.86;58.43
57050;BME280;42935;50.966;16.992;2022-09-16T14:48:58;100344.05;;;18.48;59.01
57050;BME280;42935;50.966;16.992;2022-09-16T14:52:21;100340.41;;;17.13;61.44
57050;BME280;42935;50.966;16.992;2022-09-16T14:55:34;100340.66;;;16.38;65.33
57050;BME280;42935;50.966;16.992;2022-09-16T14:58:52;100338.42;;;16.06;67.54
57050;BME280;42935;50.966;16.992;2022-09-16T15:08:48;100351.06;;;15.62;72.38
57050;BME280;42935;50.966;16.992;2022-09-16T15:12:01;100350.45;;;15.74;74.97
57050;BME280;42935;50.966;16.992;2022-09-16T15:15:20;100351.38;;;16.14;79.53
57050;BME280;42935;50.966;16.992;2022-09-16T15:18:42;100351.61;;;16.72;81.22
57050;BME280;42935;50.966;16.992;2022-09-16T15:21:53;100352.13;;;16.87;79.68
57050;BME280;42935;50.966;16.992;2022-09-16T15:25:04;100343.35;;;17.54;75.84
57050;BME280;42935;50.966;16.992;2022-09-16T15:28:18;100342.74;;;17.48;72.44
57050;BME280;42935;50.966;16.992;2022-09-16T15:31:30;100342.13;;;17.50;72.42
57050;BME280;42935;50.966;16.992;2022-09-16T15:38:11;100350.64;;;16.73;81.52
57050;BME280;42935;50.966;16.992;2022-09-16T15:41:22;100352.77;;;15.54;89.85
57050;BME280;42935;50.966;16.992;2022-09-16T15:44:34;100346.16;;;15.66;90.45
57050;BME280;42935;50.966;16.992;2022-09-16T15:47:53;100340.11;;;16.91;78.00
57050;BME280;42935;50.966;16.992;2022-09-16T15:54:32;100320.95;;;18.45;69.11
57050;BME280;42935;50.966;16.992;2022-09-16T15:57:47;100325.68;;;18.55;66.13
57050;BME280;42935;50.966;16.992;2022-09-16T16:01:02;100330.02;;;18.21;66.25
57050;BME280;42935;50.966;16.992;2022-09-16T16:14:16;100336.81;;;17.45;66.32
57050;BME280;42935;50.966;16.992;2022-09-16T16:17:27;100340.75;;;17.00;69.29
57050;BME280;42935;50.966;16.992;2022-09-16T16:20:36;100342.08;;;15.98;73.55
57050;BME280;42935;50.966;16.992;2022-09-16T16:23:49;100334.13;;;15.89;75.77
57050;BME280;42935;50.966;16.992;2022-09-16T16:27:03;100344.45;;;15.78;77.66
57050;BME280;42935;50.966;16.992;2022-09-16T16:30:12;100347.23;;;15.38;81.72
57050;BME280;42935;50.966;16.992;2022-09-16T16:33:24;100345.23;;;15.41;82.57
57050;BME280;42935;50.966;16.992;2022-09-16T16:36:34;100345.16;;;15.42;82.70
57050;BME280;42935;50.966;16.992;2022-09-16T16:39:44;100342.80;;;15.10;85.11
57050;BME280;42935;50.966;16.992;2022-09-16T16:42:55;100347.13;;;14.97;87.27
57050;BME280;42935;50.966;16.992;2022-09-16T16:46:05;100351.87;;;14.87;87.23
57050;BME280;42935;50.966;16.992;2022-09-16T16:49:16;100351.11;;;14.81;89.61
57050;BME280;42935;50.966;16.992;2022-09-16T16:52:27;100351.42;;;14.50;92.19
57050;BME280;42935;50.966;16.992;2022-09-16T16:55:37;100354.53;;;14.60;92.15
57050;BME280;42935;50.966;16.992;2022-09-16T16:58:48;100354.88;;;14.04;99.61
57050;BME280;42935;50.966;16.992;2022-09-16T17:02:00;100364.50;;;13.64;100.00
57050;BME280;42935;50.966;16.992;2022-09-16T17:05:11;100365.44;;;13.37;100.00
57050;BME280;42935;50.966;16.992;2022-09-16T17:08:21;100367.50;;;13.10;100.00
57050;BME280;42935;50.966;16.992;2022-09-16T17:11:32;100363.47;;;13.04;100.00
57050;BME280;42935;50.966;16.992;2022-09-16T17:14:44;100374.40;;;12.88;100.00
57050;BME280;42935;50.966;16.992;2022-09-16T17:17:53;100373.85;;;12.45;100.00
57050;BME280;42935;50.966;16.992;2022-09-16T17:21:11;100380.20;;;12.41;100.00
57050;BME280;42935;50.966;16.992;2022-09-16T17:24:21;100379.45;;;12.27;100.00
57050;BME280;42935;50.966;16.992;2022-09-16T17:27:31;100370.73;;;12.17;100.00
57050;BME280;42935;50.966;16.992;2022-09-16T17:30:42;100365.55;;;12.03;100.00
57050;BME280;42935;50.966;16.992;2022-09-16T17:34:20;100373.27;;;11.92;100.00
57050;BME280;42935;50.966;16.992;2022-09-16T17:37:31;100385.84;;;11.79;100.00
57050;BME280;42935;50.966;16.992;2022-09-16T17:40:41;100387.37;;;11.66;100.00
57050;BME280;42935;50.966;16.992;2022-09-16T17:43:48;100386.65;;;11.73;100.00
57050;BME280;42935;50.966;16.992;2022-09-16T17:47:02;100384.05;;;11.69;100.00
57050;BME280;42935;50.966;16.992;2022-09-16T17:50:12;100381.22;;;11.68;100.00
57050;BME280;42935;50.966;16.992;2022-09-16T17:53:22;100375.50;;;11.68;100.00
57050;BME280;42935;50.966;16.992;2022-09-16T17:56:34;100379.18;;;11.49;100.00
57050;BME280;42935;50.966;16.992;2022-09-16T17:59:45;100388.41;;;11.43;100.00
57050;BME280;42935;50.966;16.992;2022-09-16T18:02:58;100381.84;;;11.46;100.00
57050;BME280;42935;50.966;16.992;2022-09-16T18:06:21;100386.58;;;11.26;100.00
57050;BME280;42935;50.966;16.992;2022-09-16T18:09:34;100395.27;;;11.18;100.00
57050;BME280;42935;50.966;16.992;2022-09-16T18:13:12;100383.44;;;11.16;100.00
57050;BME280;42935;50.966;16.992;2022-09-16T18:16:26;100391.70;;;11.07;100.00
57050;BME280;42935;50.966;16.992;2022-09-16T18:19:39;100391.91;;;10.93;100.00
57050;BME280;42935;50.966;16.992;2022-09-16T18:22:50;100398.13;;;10.77;100.00
57050;BME280;42935;50.966;16.992;2022-09-16T18:26:09;100388.18;;;10.58;100.00
57050;BME280;42935;50.966;16.992;2022-09-16T18:29:22;100391.36;;;10.59;100.00
57050;BME280;42935;50.966;16.992;2022-09-16T18:32:33;100405.38;;;10.53;100.00
57050;BME280;42935;50.966;16.992;2022-09-16T18:35:45;100397.80;;;10.52;100.00
57050;BME280;42935;50.966;16.992;2022-09-16T18:38:54;100406.56;;;10.51;100.00
57050;BME280;42935;50.966;16.992;2022-09-16T18:42:05;100408.76;;;10.47;100.00
57050;BME280;42935;50.966;16.992;2022-09-16T18:45:14;100413.20;;;10.43;100.00
57050;BME280;42935;50.966;16.992;2022-09-16T18:48:20;100414.49;;;10.45;100.00
57050;BME280;42935;50.966;16.992;2022-09-16T18:51:43;100419.94;;;10.62;100.00
57050;BME280;42935;50.966;16.992;2022-09-16T18:54:54;100419.14;;;10.71;100.00
57050;BME280;42935;50.966;16.992;2022-09-16T18:58:03;100416.73;;;10.61;100.00
57050;BME280;42935;50.966;16.992;2022-09-16T19:01:23;100418.41;;;10.65;100.00
57050;BME280;42935;50.966;16.992;2022-09-16T19:04:38;100418.38;;;10.72;100.00
57050;BME280;42935;50.966;16.992;2022-09-16T19:07:49;100421.91;;;10.67;100.00
57050;BME280;42935;50.966;16.992;2022-09-16T19:11:05;100425.25;;;10.59;100.00
57050;BME280;42935;50.966;16.992;2022-09-16T19:14:16;100427.91;;;10.61;100.00
57050;BME280;42935;50.966;16.992;2022-09-16T19:17:28;100422.21;;;10.55;100.00
57050;BME280;42935;50.966;16.992;2022-09-16T19:20:42;100416.53;;;10.46;100.00
57050;BME280;42935;50.966;16.992;2022-09-16T19:23:57;100426.84;;;10.44;100.00
57050;BME280;42935;50.966;16.992;2022-09-16T19:27:06;100424.38;;;10.30;100.00
57050;BME280;42935;50.966;16.992;2022-09-16T19:30:20;100433.24;;;10.26;100.00
57050;BME280;42935;50.966;16.992;2022-09-16T19:33:34;100418.11;;;10.12;100.00
57050;BME280;42935;50.966;16.992;2022-09-16T19:36:44;100421.93;;;10.09;100.00
57050;BME280;42935;50.966;16.992;2022-09-16T19:39:52;100414.60;;;10.07;100.00
57050;BME280;42935;50.966;16.992;2022-09-16T19:43:01;100412.73;;;10.09;100.00
57050;BME280;42935;50.966;16.992;2022-09-16T19:46:11;100364.49;;;9.86;100.00
57050;BME280;42935;50.966;16.992;2022-09-16T19:49:22;100413.55;;;10.03;100.00
57050;BME280;42935;50.966;16.992;2022-09-16T19:52:33;100412.41;;;9.97;100.00
57050;BME280;42935;50.966;16.992;2022-09-16T19:59:10;100416.04;;;9.87;100.00
57050;BME280;42935;50.966;16.992;2022-09-16T20:02:16;100419.01;;;9.82;100.00
57050;BME280;42935;50.966;16.992;2022-09-16T20:05:26;100419.10;;;9.77;100.00
57050;BME280;42935;50.966;16.992;2022-09-16T20:08:55;100416.47;;;9.71;100.00
57050;BME280;42935;50.966;16.992;2022-09-16T20:12:08;100418.61;;;9.65;100.00
57050;BME280;42935;50.966;16.992;2022-09-16T20:15:18;100417.19;;;9.64;100.00
57050;BME280;42935;50.966;16.992;2022-09-16T20:18:33;100418.08;;;9.60;100.00
57050;BME280;42935;50.966;16.992;2022-09-16T20:21:45;100406.46;;;9.49;100.00
57050;BME280;42935;50.966;16.992;2022-09-16T20:24:58;100407.16;;;9.49;100.00
57050;BME280;42935;50.966;16.992;2022-09-16T20:28:09;100408.60;;;9.49;100.00
57050;BME280;42935;50.966;16.992;2022-09-16T20:31:21;100410.75;;;9.48;100.00
57050;BME280;42935;50.966;16.992;2022-09-16T20:34:31;100422.54;;;9.54;100.00
57050;BME280;42935;50.966;16.992;2022-09-16T20:37:42;100420.36;;;9.48;100.00
57050;BME280;42935;50.966;16.992;2022-09-16T20:40:52;100417.11;;;9.44;100.00
57050;BME280;42935;50.966;16.992;2022-09-16T20:44:05;100419.74;;;9.45;100.00